Huvudsida
METAR-TAF:

METAR-TAF

Flygplatser :

Sundsvall Timrå Airport

Sundsvall-Härnösand, Sverige

latitud: 62-32N, longitud: 017-27E, höjd: 4 m

Aktuellt väderrapport

Denna rapport gjordes för 21 minuter sedan, klockan 03:50 UTC
Vind 2 kt varierande vindriktning
Temperatur -3°C
Fuktighet 100%
Tryck 991 hPa
Sikt 10 km eller mer

METAR: ESNN 190350Z AUTO VRB02KT 9999 NCD M03/M03 Q0991

Tid: 05:11 (04:11 UTC)

Väderprognos

Denna rapport gjordes för 10 timmar och 41 minuter sedan, klockan 17:30 UTC
Prognos gäller från 18 kl. 18 UTC till 18 kl. 22 UTC
Vind 4 kt från sydväst
Sikt 10 km eller mer
Inga moln under 1 500 m eller inga cumulonimbus

TAF: ESNN 181730Z 1818/1822 22004KT CAVOK

Aktuella väderrapporter och prognoser från 4000 flygplatser (METAR- och TAF-rapporter).

De tillgängliga stationerna syns som gula och röda prickar på kartan.

För musen över prickarna för att se namnen på stationerna.

Klicka sedan för att få väderrapporter och prognoser.

För att ändra kartan: Klicka på de gröna knapparna med ett svart kors på för att zooma in; den gröna knappen med ett streck på för att zooma ut; eller på de gröna pilarna för angränsande kartor.


METAR-TAF: